createdAt,value
2023-03-19T00:01:23.082Z,56.10
2023-03-19T00:03:51.770Z,51.20
2023-03-19T00:06:20.042Z,46.70
2023-03-19T00:08:49.223Z,51.70
2023-03-19T00:11:17.479Z,57.00
2023-03-19T00:13:45.542Z,74.00
2023-03-19T00:16:16.462Z,80.30
2023-03-19T00:18:44.534Z,73.90
2023-03-19T00:21:12.765Z,67.10
2023-03-19T00:23:41.316Z,69.30
2023-03-19T00:26:09.759Z,97.90
2023-03-19T00:28:41.376Z,78.20
2023-03-19T00:31:15.620Z,78.20
2023-03-19T00:33:44.095Z,75.40
2023-03-19T00:36:13.074Z,79.40
2023-03-19T00:38:43.957Z,64.50
2023-03-19T00:41:12.818Z,75.00
2023-03-19T00:43:41.657Z,82.40
2023-03-19T00:46:09.977Z,75.50
2023-03-19T00:48:41.432Z,80.00
2023-03-19T00:51:11.603Z,74.40
2023-03-19T00:53:42.625Z,70.10
2023-03-19T00:56:12.242Z,88.40
2023-03-19T00:58:42.338Z,76.30
2023-03-19T01:01:11.545Z,47.90
2023-03-19T01:03:40.190Z,50.00
2023-03-19T01:06:08.180Z,55.30
2023-03-19T01:08:37.132Z,49.90
2023-03-19T01:11:09.905Z,52.30
2023-03-19T01:13:38.577Z,46.20
2023-03-19T01:16:07.161Z,71.20
2023-03-19T01:18:35.793Z,45.50
2023-03-19T01:21:04.960Z,64.70
2023-03-19T01:23:33.873Z,60.70
2023-03-19T01:26:05.145Z,56.50
2023-03-19T01:28:33.290Z,60.30
2023-03-19T01:31:02.001Z,76.40
2023-03-19T01:33:43.743Z,84.90
2023-03-19T01:36:17.760Z,66.90
2023-03-19T01:39:03.296Z,70.80
2023-03-19T01:41:31.408Z,71.90
2023-03-19T01:44:28.517Z,41.60
2023-03-19T01:47:28.938Z,67.40
2023-03-19T01:50:30.282Z,86.90
2023-03-19T01:53:17.995Z,66.30
2023-03-19T01:56:11.570Z,69.00
2023-03-19T01:58:57.212Z,53.60
2023-03-19T02:01:57.378Z,77.90
2023-03-19T02:04:26.151Z,68.80
2023-03-19T02:06:57.665Z,54.90
2023-03-19T02:09:27.810Z,55.60
2023-03-19T02:11:56.287Z,62.50
2023-03-19T02:14:24.412Z,67.10
2023-03-19T02:16:55.943Z,67.50
2023-03-19T02:19:57.994Z,67.40
2023-03-19T02:22:31.388Z,61.70
2023-03-19T02:25:03.044Z,60.50
2023-03-19T02:27:31.822Z,59.70
2023-03-19T02:30:02.815Z,49.90
2023-03-19T02:32:32.284Z,51.30
2023-03-19T02:35:09.353Z,61.50
2023-03-19T02:37:37.596Z,50.40
2023-03-19T02:40:14.740Z,47.80
2023-03-19T02:42:42.698Z,46.50
2023-03-19T02:45:11.660Z,48.00
2023-03-19T02:47:40.222Z,50.60
2023-03-19T02:50:08.861Z,51.70
2023-03-19T02:52:36.850Z,50.40
2023-03-19T02:55:05.135Z,56.00
2023-03-19T02:57:33.160Z,54.30
2023-03-19T03:00:01.586Z,54.10
2023-03-19T03:02:30.194Z,63.00
2023-03-19T03:04:58.119Z,56.80
2023-03-19T03:07:27.168Z,52.90
2023-03-19T03:09:56.811Z,60.30
2023-03-19T03:12:24.750Z,58.70
2023-03-19T03:14:53.892Z,73.00
2023-03-19T03:17:22.740Z,62.20
2023-03-19T03:19:50.989Z,51.80
2023-03-19T03:22:19.178Z,61.80
2023-03-19T03:24:47.539Z,65.10
2023-03-19T03:27:17.304Z,62.30
2023-03-19T03:29:46.946Z,64.60
2023-03-19T03:32:15.177Z,70.20
2023-03-19T03:34:43.772Z,68.50
2023-03-19T03:37:12.095Z,66.50
2023-03-19T03:39:39.928Z,62.00
2023-03-19T03:42:08.070Z,69.40
2023-03-19T03:44:36.660Z,61.20
2023-03-19T03:47:05.067Z,69.30
2023-03-19T03:49:33.026Z,63.00
2023-03-19T03:52:00.939Z,83.20
2023-03-19T03:54:29.454Z,79.20
2023-03-19T03:56:57.483Z,70.60
2023-03-19T04:01:59.354Z,66.80
2023-03-19T04:04:27.469Z,75.50
2023-03-19T04:06:55.584Z,74.80
2023-03-19T04:09:33.556Z,75.70
2023-03-19T04:12:02.238Z,94.00
2023-03-19T04:14:34.624Z,89.70
2023-03-19T04:17:02.826Z,79.30
2023-03-19T04:19:31.912Z,79.60
2023-03-19T04:22:03.697Z,87.40
2023-03-19T04:24:34.749Z,76.10
2023-03-19T04:27:03.329Z,83.30
2023-03-19T04:29:32.111Z,72.70
2023-03-19T04:32:00.919Z,83.50
2023-03-19T04:34:29.086Z,96.70
2023-03-19T04:36:57.735Z,84.80
2023-03-19T04:39:26.069Z,93.60
2023-03-19T04:41:57.549Z,73.00
2023-03-19T04:44:29.126Z,79.30
2023-03-19T04:46:57.445Z,74.70
2023-03-19T04:49:26.344Z,88.50
2023-03-19T04:51:56.581Z,83.50
2023-03-19T04:54:25.280Z,76.80
2023-03-19T04:56:54.077Z,87.50
2023-03-19T04:59:25.641Z,89.10
2023-03-19T05:01:53.818Z,91.10
2023-03-19T05:04:25.066Z,92.10
2023-03-19T05:06:54.099Z,74.30
2023-03-19T05:09:22.295Z,82.00
2023-03-19T05:11:50.456Z,77.80
2023-03-19T05:14:20.972Z,84.50
2023-03-19T05:17:05.036Z,83.40
2023-03-19T05:19:53.044Z,84.00
2023-03-19T05:22:21.173Z,83.60
2023-03-19T05:24:49.761Z,90.70
2023-03-19T05:27:19.036Z,79.20
2023-03-19T05:29:52.603Z,80.80
2023-03-19T05:32:46.720Z,77.40
2023-03-19T05:35:21.445Z,80.70
2023-03-19T05:37:50.440Z,84.50
2023-03-19T05:40:20.132Z,94.10
2023-03-19T05:42:49.014Z,80.80
2023-03-19T05:45:22.548Z,76.10
2023-03-19T05:47:53.842Z,79.30
2023-03-19T05:50:22.769Z,82.60
2023-03-19T05:53:06.957Z,72.80
2023-03-19T05:55:36.720Z,69.40
2023-03-19T05:58:11.300Z,67.90
2023-03-19T06:00:39.811Z,65.60
2023-03-19T06:03:08.562Z,65.70
2023-03-19T06:05:51.362Z,54.70
2023-03-19T06:08:32.344Z,46.30
2023-03-19T06:11:21.356Z,49.40
2023-03-19T06:16:23.504Z,38.80
2023-03-19T06:18:53.879Z,35.50
2023-03-19T06:21:30.464Z,31.90
2023-03-19T06:24:00.951Z,37.60
2023-03-19T06:26:42.469Z,31.30
2023-03-19T06:29:15.757Z,29.90
2023-03-19T06:31:45.505Z,30.60
2023-03-19T06:34:21.501Z,28.10
2023-03-19T06:36:49.864Z,29.40
2023-03-19T06:39:22.333Z,27.60
2023-03-19T06:41:50.429Z,27.10
2023-03-19T06:44:22.251Z,20.90
2023-03-19T06:46:51.641Z,23.20
2023-03-19T06:49:19.684Z,22.40
2023-03-19T06:51:53.329Z,17.30
2023-03-19T06:54:22.320Z,14.30
2023-03-19T06:56:50.935Z,13.70
2023-03-19T06:59:19.904Z,11.20
2023-03-19T07:01:50.256Z,13.10
2023-03-19T07:04:18.557Z,12.60
2023-03-19T07:06:47.708Z,13.60
2023-03-19T07:09:16.967Z,13.50
2023-03-19T07:11:46.921Z,11.40
2023-03-19T07:14:16.164Z,13.00
2023-03-19T07:16:45.397Z,13.10
2023-03-19T07:19:17.464Z,14.50
2023-03-19T07:21:46.829Z,13.10
2023-03-19T07:24:15.459Z,13.80
2023-03-19T07:26:44.353Z,15.00
2023-03-19T07:29:12.893Z,14.50
2023-03-19T07:31:41.354Z,13.30
2023-03-19T07:36:48.274Z,11.60
2023-03-19T07:39:20.068Z,11.60
2023-03-19T07:41:50.643Z,12.10
2023-03-19T07:44:21.287Z,12.70
2023-03-19T07:46:58.999Z,13.80
2023-03-19T07:49:29.013Z,11.80
2023-03-19T07:52:00.629Z,12.50
2023-03-19T07:54:35.272Z,10.20
2023-03-19T07:57:08.316Z,12.50
2023-03-19T07:59:40.226Z,12.60
2023-03-19T08:02:13.354Z,13.00
2023-03-19T08:04:45.359Z,12.30
2023-03-19T08:07:18.266Z,11.00
2023-03-19T08:09:50.281Z,13.20
2023-03-19T08:12:21.312Z,13.10
2023-03-19T08:14:52.997Z,11.70
2023-03-19T08:17:26.401Z,13.40
2023-03-19T08:19:58.306Z,13.30
2023-03-19T08:22:31.966Z,11.60
2023-03-19T08:25:04.507Z,13.70
2023-03-19T08:27:35.834Z,13.80
2023-03-19T08:30:07.269Z,16.10
2023-03-19T08:32:40.835Z,15.30
2023-03-19T08:42:45.601Z,17.60
2023-03-19T08:45:14.411Z,20.10
2023-03-19T08:47:43.077Z,18.10
2023-03-19T08:50:15.807Z,17.70
2023-03-19T08:52:46.867Z,19.50
2023-03-19T08:55:16.270Z,15.70
2023-03-19T08:57:46.795Z,10.20
2023-03-19T09:00:15.979Z,12.00
2023-03-19T09:02:50.426Z,12.00
2023-03-19T09:05:25.154Z,12.10
2023-03-19T09:08:13.420Z,12.70
2023-03-19T09:10:51.502Z,13.80
2023-03-19T09:13:24.600Z,14.50
2023-03-19T09:15:53.049Z,12.00
2023-03-19T09:18:23.863Z,16.00
2023-03-19T09:20:53.939Z,11.20
2023-03-19T09:23:22.165Z,10.70
2023-03-19T09:25:55.435Z,12.40
2023-03-19T09:28:23.444Z,14.20
2023-03-19T09:30:54.516Z,12.70
2023-03-19T09:33:22.606Z,14.00
2023-03-19T09:35:54.888Z,14.20
2023-03-19T09:38:23.621Z,11.50
2023-03-19T09:41:28.490Z,14.10
2023-03-19T09:44:04.769Z,15.20
2023-03-19T09:46:50.106Z,13.50
2023-03-19T09:49:25.085Z,14.40
2023-03-19T09:52:32.445Z,16.40
2023-03-19T09:55:34.805Z,16.30
2023-03-19T09:58:10.805Z,15.20
2023-03-19T10:00:38.840Z,12.80
2023-03-19T10:03:12.634Z,12.80
2023-03-19T10:06:07.212Z,13.30
2023-03-19T10:09:08.710Z,14.40
2023-03-19T10:12:01.451Z,13.50
2023-03-19T10:14:42.424Z,14.00
2023-03-19T10:17:18.106Z,15.40
2023-03-19T10:20:17.328Z,11.80
2023-03-19T10:22:51.126Z,16.60
2023-03-19T10:25:24.179Z,14.30
2023-03-19T10:27:59.640Z,15.20
2023-03-19T10:30:27.740Z,14.40
2023-03-19T10:33:11.128Z,14.70
2023-03-19T10:35:45.562Z,13.30
2023-03-19T10:38:20.847Z,18.30
2023-03-19T10:40:56.853Z,15.20
2023-03-19T10:43:24.994Z,17.60
2023-03-19T10:45:54.504Z,13.80
2023-03-19T10:48:28.321Z,13.90
2023-03-19T10:51:04.908Z,19.60
2023-03-19T10:53:35.692Z,14.30
2023-03-19T10:56:05.692Z,12.00
2023-03-19T10:58:36.684Z,14.00
2023-03-19T11:01:12.047Z,15.60
2023-03-19T11:03:53.317Z,14.90
2023-03-19T11:06:41.570Z,13.50
2023-03-19T11:09:13.953Z,17.30
2023-03-19T11:11:51.201Z,16.60
2023-03-19T11:14:25.562Z,17.70
2023-03-19T11:16:57.640Z,16.90
2023-03-19T11:19:28.260Z,19.50
2023-03-19T11:22:02.796Z,21.10
2023-03-19T11:24:37.719Z,17.50
2023-03-19T11:27:06.905Z,18.50
2023-03-19T11:29:42.346Z,21.00
2023-03-19T11:32:34.279Z,18.20
2023-03-19T11:35:16.183Z,19.40
2023-03-19T11:38:25.129Z,16.90
2023-03-19T11:41:04.104Z,18.60
2023-03-19T11:43:54.739Z,16.00
2023-03-19T11:46:54.741Z,17.90
2023-03-19T11:49:37.334Z,18.00
2023-03-19T11:52:13.630Z,17.70
2023-03-19T11:55:13.368Z,17.10
2023-03-19T11:58:05.836Z,17.50
2023-03-19T12:00:46.711Z,14.60
2023-03-19T12:03:19.747Z,17.50
2023-03-19T12:05:55.929Z,17.30
2023-03-19T12:08:39.976Z,17.80
2023-03-19T12:11:46.753Z,20.60
2023-03-19T12:14:25.652Z,17.50
2023-03-19T12:16:56.141Z,19.30
2023-03-19T12:20:03.448Z,20.00
2023-03-19T12:22:54.579Z,18.90
2023-03-19T12:25:30.980Z,20.90
2023-03-19T12:28:18.259Z,16.20
2023-03-19T12:31:16.630Z,14.70
2023-03-19T12:34:09.915Z,17.30
2023-03-19T12:36:45.978Z,18.10
2023-03-19T12:39:17.537Z,18.50
2023-03-19T12:41:47.397Z,19.20
2023-03-19T12:44:24.446Z,17.70
2023-03-19T12:47:06.757Z,19.50
2023-03-19T12:49:39.885Z,19.10
2023-03-19T12:52:34.427Z,16.50
2023-03-19T12:55:23.819Z,15.80
2023-03-19T12:58:01.124Z,18.10
2023-03-19T13:00:35.025Z,17.10
2023-03-19T13:03:18.952Z,18.80
2023-03-19T13:06:19.741Z,18.10
2023-03-19T13:08:57.551Z,19.30
2023-03-19T13:11:56.740Z,18.90
2023-03-19T13:14:44.249Z,17.30
2023-03-19T13:17:41.546Z,20.90
2023-03-19T13:20:53.040Z,18.90
2023-03-19T13:23:32.668Z,18.60
2023-03-19T13:26:01.429Z,21.50
2023-03-19T13:28:36.701Z,25.00
2023-03-19T13:31:06.937Z,20.10
2023-03-19T13:33:35.696Z,18.90
2023-03-19T13:36:12.602Z,21.20
2023-03-19T13:38:48.198Z,23.40
2023-03-19T13:41:35.548Z,21.00
2023-03-19T13:44:32.510Z,19.30
2023-03-19T13:47:04.636Z,21.00
2023-03-19T13:49:35.509Z,20.10
2023-03-19T13:52:28.914Z,20.30
2023-03-19T13:55:00.612Z,16.50
2023-03-19T13:57:35.856Z,12.40
2023-03-19T14:00:43.162Z,14.10
2023-03-19T14:03:20.401Z,12.60
2023-03-19T14:05:49.323Z,14.80
2023-03-19T14:08:22.265Z,12.10
2023-03-19T14:10:52.829Z,13.40
2023-03-19T14:13:40.936Z,15.40
2023-03-19T14:16:18.564Z,15.30
2023-03-19T14:18:47.279Z,14.30
2023-03-19T14:21:36.474Z,17.10
2023-03-19T14:24:58.600Z,18.80
2023-03-19T14:27:33.325Z,14.80
2023-03-19T14:30:03.418Z,17.90
2023-03-19T14:32:34.623Z,20.10
2023-03-19T14:35:05.143Z,21.50
2023-03-19T14:37:37.888Z,19.70
2023-03-19T14:40:33.768Z,20.40
2023-03-19T14:43:27.370Z,18.60
2023-03-19T14:46:04.258Z,20.50
2023-03-19T14:48:51.475Z,21.00
2023-03-19T14:51:33.576Z,19.00
2023-03-19T14:54:21.599Z,18.80
2023-03-19T14:56:50.704Z,18.80
2023-03-19T14:59:18.940Z,19.00
2023-03-19T15:01:50.033Z,17.60
2023-03-19T15:04:20.519Z,18.50
2023-03-19T15:06:56.927Z,18.60
2023-03-19T15:09:41.716Z,17.10
2023-03-19T15:12:31.572Z,16.80
2023-03-19T15:15:21.377Z,16.20
2023-03-19T15:18:05.225Z,18.30
2023-03-19T15:20:42.918Z,17.10
2023-03-19T15:23:25.828Z,18.60
2023-03-19T15:26:01.272Z,21.20
2023-03-19T15:28:46.038Z,19.10
2023-03-19T15:31:31.078Z,24.90
2023-03-19T15:34:17.801Z,21.10
2023-03-19T15:36:46.726Z,26.00
2023-03-19T15:39:15.886Z,21.00
2023-03-19T15:41:47.900Z,18.50
2023-03-19T15:44:33.947Z,22.70
2023-03-19T15:47:02.851Z,19.10
2023-03-19T15:49:34.176Z,18.20
2023-03-19T15:52:07.036Z,18.00
2023-03-19T15:54:35.351Z,18.90
2023-03-19T15:57:04.236Z,21.40
2023-03-19T15:59:34.641Z,19.00
2023-03-19T16:02:04.195Z,22.00
2023-03-19T16:04:45.691Z,21.30
2023-03-19T16:07:45.797Z,33.30
2023-03-19T16:10:34.757Z,35.90
2023-03-19T16:13:05.803Z,35.90
2023-03-19T16:15:46.292Z,39.10
2023-03-19T16:18:18.164Z,35.90
2023-03-19T16:21:07.346Z,35.20
2023-03-19T16:23:38.638Z,39.20
2023-03-19T16:26:17.429Z,42.50
2023-03-19T16:28:59.769Z,39.40
2023-03-19T16:31:32.308Z,42.30
2023-03-19T16:34:00.891Z,48.50
2023-03-19T16:36:35.565Z,51.80
2023-03-19T16:39:23.248Z,50.60
2023-03-19T16:42:13.132Z,42.30
2023-03-19T16:44:44.629Z,44.60
2023-03-19T16:47:14.645Z,29.00
2023-03-19T16:49:47.095Z,25.90
2023-03-19T16:52:18.642Z,24.30
2023-03-19T16:54:49.108Z,27.40
2023-03-19T16:57:17.449Z,25.30
2023-03-19T16:59:46.098Z,24.90
2023-03-19T17:02:15.668Z,21.50
2023-03-19T17:04:44.823Z,26.40
2023-03-19T17:07:13.700Z,29.60
2023-03-19T17:09:43.060Z,27.40
2023-03-19T17:12:14.657Z,24.80
2023-03-19T17:14:52.367Z,31.80
2023-03-19T17:17:21.982Z,32.10
2023-03-19T17:19:52.378Z,29.80
2023-03-19T17:22:20.952Z,44.40
2023-03-19T17:24:49.186Z,44.60
2023-03-19T17:27:18.140Z,46.90
2023-03-19T17:29:47.000Z,45.60
2023-03-19T17:32:18.762Z,69.20
2023-03-19T17:34:52.212Z,66.60
2023-03-19T17:37:22.789Z,59.10
2023-03-19T17:39:51.889Z,44.10
2023-03-19T17:42:23.212Z,47.40
2023-03-19T17:44:52.267Z,46.60
2023-03-19T17:47:20.392Z,46.10
2023-03-19T17:49:49.509Z,55.20
2023-03-19T17:52:19.712Z,52.80
2023-03-19T17:54:54.518Z,54.20
2023-03-19T17:57:22.534Z,52.50
2023-03-19T17:59:50.795Z,50.70
2023-03-19T18:02:26.142Z,65.90
2023-03-19T18:04:57.089Z,74.10
2023-03-19T18:07:25.337Z,71.30
2023-03-19T18:09:53.735Z,75.80
2023-03-19T18:12:21.730Z,65.00
2023-03-19T18:14:49.933Z,66.60
2023-03-19T18:17:20.539Z,67.60
2023-03-19T18:19:50.801Z,56.60
2023-03-19T18:22:19.517Z,63.90
2023-03-19T18:24:48.135Z,66.50
2023-03-19T18:27:16.807Z,71.80
2023-03-19T18:29:55.549Z,66.60
2023-03-19T18:32:29.765Z,64.80
2023-03-19T18:34:59.960Z,67.90
2023-03-19T18:37:28.242Z,71.40
2023-03-19T18:39:56.416Z,72.50
2023-03-19T18:42:26.037Z,67.40
2023-03-19T18:44:53.971Z,67.40
2023-03-19T18:47:22.018Z,70.40
2023-03-19T18:49:57.823Z,65.80
2023-03-19T18:52:28.225Z,64.50
2023-03-19T18:54:57.483Z,64.60
2023-03-19T18:57:25.825Z,71.40
2023-03-19T18:59:54.204Z,66.90
2023-03-19T19:02:36.725Z,77.30
2023-03-19T19:05:05.622Z,65.40
2023-03-19T19:07:33.887Z,70.00
2023-03-19T19:10:05.725Z,66.10
2023-03-19T19:12:34.352Z,67.10
2023-03-19T19:15:02.631Z,68.70
2023-03-19T19:17:32.254Z,70.90
2023-03-19T19:20:00.392Z,65.20
2023-03-19T19:22:30.017Z,74.20
2023-03-19T19:24:57.970Z,72.60
2023-03-19T19:27:26.814Z,73.40
2023-03-19T19:30:00.933Z,73.00
2023-03-19T19:32:31.024Z,74.60
2023-03-19T19:34:59.052Z,74.20
2023-03-19T19:37:29.844Z,73.90
2023-03-19T19:39:58.096Z,82.80
2023-03-19T19:42:26.444Z,78.60
2023-03-19T19:44:57.850Z,84.40
2023-03-19T19:47:27.013Z,91.30
2023-03-19T19:49:58.801Z,83.80
2023-03-19T19:52:28.308Z,86.00
2023-03-19T19:54:56.741Z,76.10
2023-03-19T19:57:25.603Z,80.10
2023-03-19T19:59:55.995Z,78.90
2023-03-19T20:02:26.806Z,85.40
2023-03-19T20:04:56.010Z,71.40
2023-03-19T20:07:26.239Z,75.30
2023-03-19T20:09:55.218Z,79.20
2023-03-19T20:12:30.792Z,77.80
2023-03-19T20:14:59.064Z,82.40
2023-03-19T20:17:28.029Z,79.60
2023-03-19T20:19:56.453Z,81.10
2023-03-19T20:22:26.867Z,78.50
2023-03-19T20:24:57.501Z,83.80
2023-03-19T20:27:27.322Z,80.50
2023-03-19T20:29:55.776Z,75.20
2023-03-19T20:32:27.554Z,75.00
2023-03-19T20:34:56.026Z,81.30
2023-03-19T20:37:24.385Z,82.50
2023-03-19T20:39:52.487Z,79.40
2023-03-19T20:42:20.662Z,79.60
2023-03-19T20:44:49.017Z,85.50
2023-03-19T20:47:20.726Z,77.20
2023-03-19T20:49:49.162Z,66.80
2023-03-19T20:52:17.676Z,83.10
2023-03-19T20:54:45.815Z,84.40
2023-03-19T20:57:18.216Z,86.20
2023-03-19T21:02:17.195Z,96.10
2023-03-19T21:04:46.253Z,83.00
2023-03-19T21:07:30.754Z,91.80
2023-03-19T21:09:59.336Z,78.10
2023-03-19T21:12:36.411Z,79.00
2023-03-19T21:15:04.664Z,74.20
2023-03-19T21:17:35.021Z,80.40
2023-03-19T21:20:05.782Z,81.90
2023-03-19T21:22:34.847Z,85.60
2023-03-19T21:25:05.297Z,95.00
2023-03-19T21:27:34.795Z,84.80
2023-03-19T21:30:04.739Z,90.10
2023-03-19T21:32:34.856Z,79.40
2023-03-19T21:35:03.119Z,88.40
2023-03-19T21:37:31.960Z,98.80
2023-03-19T21:40:00.802Z,89.80
2023-03-19T21:42:29.579Z,84.30
2023-03-19T21:45:00.246Z,83.50
2023-03-19T21:47:28.270Z,80.60
2023-03-19T21:49:57.671Z,78.30
2023-03-19T21:52:25.907Z,74.80
2023-03-19T21:54:53.817Z,93.70
2023-03-19T21:57:24.209Z,101.60
2023-03-19T21:59:53.387Z,115.90
2023-03-19T22:02:23.344Z,109.20
2023-03-19T22:04:53.574Z,114.90
2023-03-19T22:07:22.702Z,113.30
2023-03-19T22:09:55.351Z,117.90
2023-03-19T22:12:26.046Z,108.90
2023-03-19T22:14:56.073Z,105.00
2023-03-19T22:17:26.945Z,105.60
2023-03-19T22:19:54.951Z,109.90
2023-03-19T22:22:23.473Z,113.90
2023-03-19T22:24:56.934Z,103.60
2023-03-19T22:27:25.103Z,111.80
2023-03-19T22:29:54.682Z,111.40
2023-03-19T22:32:23.026Z,102.30
2023-03-19T22:34:51.143Z,94.00
2023-03-19T22:37:29.268Z,91.00
2023-03-19T22:39:57.377Z,94.10
2023-03-19T22:42:26.314Z,88.70
2023-03-19T22:44:54.979Z,88.20
2023-03-19T22:47:29.892Z,78.80
2023-03-19T22:49:58.536Z,84.80
2023-03-19T22:52:27.000Z,84.40
2023-03-19T22:54:56.479Z,78.70
2023-03-19T22:57:24.482Z,70.30
2023-03-19T22:59:52.552Z,72.20
2023-03-19T23:02:20.676Z,72.20
2023-03-19T23:04:48.713Z,69.90
2023-03-19T23:07:16.877Z,70.20
2023-03-19T23:09:45.026Z,70.80
2023-03-19T23:12:15.643Z,70.30
2023-03-19T23:14:43.764Z,61.60
2023-03-19T23:17:17.648Z,61.10
2023-03-19T23:19:50.625Z,62.90
2023-03-19T23:22:19.329Z,55.50
2023-03-19T23:24:48.014Z,65.20
2023-03-19T23:27:26.079Z,57.70
2023-03-19T23:29:56.395Z,64.00
2023-03-19T23:32:30.218Z,65.90
2023-03-19T23:35:01.652Z,67.70
2023-03-19T23:37:30.539Z,79.40
2023-03-19T23:40:01.760Z,78.80
2023-03-19T23:42:31.698Z,96.40
2023-03-19T23:45:05.236Z,78.30
2023-03-19T23:47:34.365Z,74.00
2023-03-19T23:50:02.940Z,80.10
2023-03-19T23:52:31.155Z,88.20
2023-03-19T23:54:59.080Z,89.80
2023-03-19T23:57:27.229Z,96.60
2023-03-19T23:59:55.233Z,112.60
